Time;durP1;ratioP1;P1;durP2;ratioP2;P2;SDS_P1;SDS_P2;PMS_P1;PMS_P2;Temp;Humidity;BMP_temperature;BMP_pressure;BME280_temperature;BME280_humidity;BME280_pressure;Samples;Min_cycle;Max_cycle;Signal;HPM_P1;HPM_P2
2022/03/01 02:45:18;;;;;;;17.20;9.95;;;2.90;99.90;;;;;;6146635;23;20026;31
2022/03/01 06:22:57;;;;;;;15.90;11.00;;;;;;;;;;6223414;22;20028;-94
2022/03/01 06:25:23;;;;;;;17.38;10.57;;;;;;;;;;6162318;23;20075;-93
2022/03/01 06:27:51;;;;;;;18.73;11.07;;;;;;;;;;6162673;23;20067;-93
2022/03/01 06:30:17;;;;;;;14.88;10.57;;;;;;;;;;6163494;23;20021;-95
2022/03/01 06:32:43;;;;;;;20.92;10.68;;;;;;;;;;6162642;23;20047;-93
2022/03/01 06:35:09;;;;;;;20.92;11.48;;;;;;;;;;6162435;23;20347;-93
2022/03/01 06:37:35;;;;;;;16.02;11.10;;;;;;;;;;6161838;23;20017;-93
2022/03/01 06:40:01;;;;;;;20.00;11.30;;;;;;;;;;6162523;23;20017;-93
2022/03/01 06:42:28;;;;;;;24.52;10.15;;;;;;;;;;6164020;23;20096;-94
2022/03/01 06:44:54;;;;;;;22.55;11.57;;;;;;;;;;6162703;23;20075;-93
2022/03/01 06:47:20;;;;;;;16.08;10.60;;;;;;;;;;6163127;23;20324;-93
2022/03/01 06:49:46;;;;;;;18.67;11.85;;;;;;;;;;6162906;23;20052;-93
2022/03/01 06:52:12;;;;;;;16.70;10.75;;;;;;;;;;6163772;23;20032;-93
2022/03/01 06:54:38;;;;;;;27.55;17.08;;;;;;;;;;6163805;23;20017;-93
2022/03/01 06:57:04;;;;;;;36.38;20.05;;;;;;;;;;6163283;23;20379;-93
2022/03/01 06:59:31;;;;;;;26.52;15.45;;;;;;;;;;6163459;23;20017;-94
2022/03/01 07:01:57;;;;;;;21.98;14.50;;;;;;;;;;6162051;23;20017;-95
2022/03/01 07:04:23;;;;;;;17.42;10.82;;;;;;;;;;6162679;23;20021;-94
2022/03/01 07:06:49;;;;;;;16.45;10.82;;;;;;;;;;6163185;23;20016;-93
2022/03/01 07:09:15;;;;;;;22.55;11.57;;;;;;;;;;6162038;23;20051;-94
2022/03/01 07:11:42;;;;;;;20.02;12.05;;;;;;;;;;6162581;23;20020;-93
2022/03/01 07:14:08;;;;;;;17.90;11.40;;;;;;;;;;6163282;23;20331;-95
2022/03/01 07:16:34;;;;;;;22.35;11.80;;;;;;;;;;6162200;23;20070;-94
2022/03/01 07:19:03;;;;;;;20.45;11.85;;;;;;;;;;6161881;23;20040;-95
2022/03/01 07:21:29;;;;;;;16.40;10.68;;;;;;;;;;6162454;23;20017;-95
2022/03/01 07:23:55;;;;;;;20.13;11.18;;;;;;;;;;6161734;23;20043;-94
2022/03/01 07:26:21;;;;;;;17.50;11.13;;;;;;;;;;6162349;23;20463;-94
2022/03/01 07:28:47;;;;;;;19.13;10.93;;;;;;;;;;6186381;23;20020;-92
2022/03/01 07:31:13;;;;;;;19.38;11.18;;;;;;;;;;6161658;23;20043;-93
2022/03/01 07:33:41;;;;;;;26.85;12.88;;;;;;;;;;6161407;23;20044;-93
2022/03/01 07:36:07;;;;;;;17.02;10.60;;;;;;;;;;6161464;23;20013;-91
2022/03/01 07:38:33;;;;;;;16.58;10.60;;;;;;;;;;6185461;23;20466;-91
2022/03/01 07:40:59;;;;;;;19.33;12.40;;;;;;;;;;6161382;23;20017;-91
2022/03/01 07:43:25;;;;;;;22.15;11.68;;;;;;;;;;6186599;23;20099;-92
2022/03/01 07:45:51;;;;;;;16.75;10.73;;;;;;;;;;6162167;23;20017;-94
2022/03/01 07:48:17;;;;;;;18.33;11.38;;;;;;;;;;6162438;23;20020;-93
2022/03/01 07:50:43;;;;;;;17.60;10.98;;;;;;;;;;6186424;23;20053;-91
2022/03/01 07:53:09;;;;;;;23.95;11.75;;;;;;;;;;6161488;23;20017;-91
2022/03/01 07:55:35;;;;;;;20.00;10.10;;;;;;;;;;6186138;23;20013;-90
2022/03/01 07:58:01;;;;;;;17.05;11.32;;;;;;;;;;6161171;23;20017;-94
2022/03/01 08:00:28;;;;;;;19.05;11.50;;;;;;;;;;6185587;23;20028;-93
2022/03/01 08:02:54;;;;;;;19.80;11.32;;;;;;;;;;6161847;23;20401;-90
2022/03/01 08:05:20;;;;;;;22.00;12.48;;;;;;;;;;6161409;23;20096;-91
2022/03/01 08:07:46;;;;;;;17.77;11.13;;;;;;;;;;6161316;23;20351;-92
2022/03/01 08:10:12;;;;;;;16.75;11.80;;;;;;;;;;6161384;23;20017;-93
2022/03/01 08:12:38;;;;;;;16.73;11.57;;;;;;;;;;6162515;23;20447;-92
2022/03/01 08:15:05;;;;;;;22.90;12.10;;;;;;;;;;6161301;23;20460;-94
2022/03/01 08:17:31;;;;;;;19.33;11.48;;;;;;;;;;6161109;23;20025;-90
2022/03/01 08:19:57;;;;;;;14.32;10.35;;;;;;;;;;6160756;23;20068;-92
2022/03/01 08:22:23;;;;;;;18.58;12.27;;;;;;;;;;6161091;23;20079;-90
2022/03/01 08:24:50;;;;;;;17.83;11.52;;;;;;;;;;6161357;23;20052;-90
2022/03/01 08:27:17;;;;;;;18.52;12.60;;;;;;;;;;6161509;23;20021;-90
2022/03/01 08:29:43;;;;;;;21.15;12.57;;;;;;;;;;6186568;23;20075;-90
2022/03/01 08:32:09;;;;;;;13.68;10.10;;;;;;;;;;6161434;23;20013;-90
2022/03/01 08:34:38;;;;;;;19.15;12.40;;;;;;;;;;6162469;23;20040;-93
2022/03/01 08:37:04;;;;;;;18.15;11.50;;;;;;;;;;6187097;23;20017;-93
2022/03/01 08:39:30;;;;;;;17.30;11.77;;;;;;;;;;6160905;23;20021;-93
2022/03/01 08:41:56;;;;;;;21.45;13.13;;;;;;;;;;6163180;23;20017;-93
2022/03/01 08:44:22;;;;;;;19.33;10.85;;;;;;;;;;6161283;23;20021;-92
2022/03/01 08:46:48;;;;;;;16.63;11.82;;;;;;;;;;6161420;23;20013;-91
2022/03/01 08:49:14;;;;;;;16.90;10.85;;;;;;;;;;6161031;23;20021;-92
2022/03/01 08:51:40;;;;;;;18.50;12.20;;;;;;;;;;6162080;23;20024;-91
2022/03/01 08:54:06;;;;;;;18.25;11.32;;;;;;;;;;6162607;23;20386;-90
2022/03/01 08:56:33;;;;;;;17.40;10.80;;;;;;;;;;6162990;23;20191;-91
2022/03/01 08:59:00;;;;;;;21.33;12.55;;;;;;;;;;6162297;23;20017;-94
2022/03/01 09:01:26;;;;;;;23.35;11.35;;;;;;;;;;6187893;23;20021;-91
2022/03/01 09:03:52;;;;;;;20.10;12.52;;;;;;;;;;6163531;23;20017;-90
2022/03/01 09:06:20;;;;;;;18.20;11.52;;;;;;;;;;6188395;23;20017;-90
2022/03/01 09:08:46;;;;;;;18.50;11.15;;;;;;;;;;6163930;23;20092;-90
2022/03/01 09:11:13;;;;;;;20.55;11.90;;;;;;;;;;6163358;23;20467;-90
2022/03/01 09:13:40;;;;;;;20.00;12.48;;;;;;;;;;6189000;23;20013;-90
2022/03/01 09:16:07;;;;;;;16.73;11.68;;;;;;;;;;6164581;23;20021;-92
2022/03/01 09:18:34;;;;;;;19.23;11.75;;;;;;;;;;6163087;23;20027;-91
2022/03/01 09:21:01;;;;;;;26.13;12.88;;;;;;;;;;6163137;23;20013;-93
2022/03/01 09:23:27;;;;;;;20.83;13.07;;;;;;;;;;6163698;23;20032;-92
2022/03/01 09:25:53;;;;;;;20.50;11.93;;;;;;;;;;6162833;23;20068;-92
2022/03/01 09:28:19;;;;;;;19.52;11.55;;;;;;;;;;6163497;23;20450;-89
2022/03/01 09:30:45;;;;;;;19.88;11.60;;;;;;;;;;6164157;23;20383;-90
2022/03/01 09:33:11;;;;;;;23.45;12.23;;;;;;;;;;6164395;23;20071;-94
2022/03/01 09:35:37;;;;;;;22.73;13.70;;;;;;;;;;6163169;23;20088;-93
2022/03/01 09:38:03;;;;;;;21.85;12.38;;;;;;;;;;6162752;23;20044;-91
2022/03/01 09:40:29;;;;;;;18.52;11.68;;;;;;;;;;6187287;23;20328;-92
2022/03/01 09:42:55;;;;;;;19.90;13.00;;;;;;;;;;6187405;23;20461;-90
2022/03/01 09:45:22;;;;;;;18.80;12.07;;;;;;;;;;6162125;23;20351;-94
2022/03/01 09:47:48;;;;;;;20.17;11.98;;;;;;;;;;6162334;23;20092;-94
2022/03/01 09:50:15;;;;;;;21.33;12.68;;;;;;;;;;6162541;23;20024;-91
2022/03/01 09:52:41;;;;;;;21.13;12.25;;;;;;;;;;6162589;23;20017;-90
2022/03/01 09:55:08;;;;;;;22.65;13.25;;;;;;;;;;6162735;23;20056;-90
2022/03/01 09:57:35;;;;;;;21.40;12.32;;;;;;;;;;6162353;23;20016;-94
2022/03/01 10:00:01;;;;;;;20.60;13.00;;;;;;;;;;6161626;23;20017;-91
2022/03/01 10:02:37;;;;;;;25.70;12.48;;;;;;;;;;6162538;23;20393;-92
2022/03/01 10:05:03;;;;;;;18.58;12.45;;;;;;;;;;6162716;23;20021;-94
2022/03/01 10:07:30;;;;;;;18.48;11.40;;;;;;;;;;6163281;23;20069;-94
2022/03/01 10:10:07;;;;;;;28.20;11.35;;;;;;;;;;6162649;23;20021;-95
2022/03/01 10:12:33;;;;;;;22.63;12.73;;;;;;;;;;6162654;23;20024;-94
2022/03/01 10:15:02;;;;;;;19.60;12.00;;;;;;;;;;6163902;23;20434;-91
2022/03/01 10:17:36;;;;;;;18.83;12.55;;;;;;;;;;6187761;23;20013;-93
2022/03/01 10:20:12;;;;;;;19.23;11.93;;;;;;;;;;6187658;23;20017;-94
2022/03/01 10:22:43;;;;;;;20.70;11.57;;;;;;;;;;6188706;23;20017;-93
2022/03/01 10:25:09;;;;;;;19.73;12.82;;;;;;;;;;6162685;23;20343;-90
2022/03/01 10:27:36;;;;;;;22.67;13.70;;;;;;;;;;6163941;23;20021;-94
2022/03/01 10:30:03;;;;;;;18.65;12.60;;;;;;;;;;6163287;23;20052;-94
2022/03/01 10:32:29;;;;;;;21.67;13.20;;;;;;;;;;6163051;23;20019;-92
2022/03/01 10:35:06;;;;;;;19.92;11.90;;;;;;;;;;6162048;23;20485;-95
2022/03/01 10:37:33;;;;;;;20.90;14.90;;;;;;;;;;6186701;23;20095;-91
2022/03/01 10:40:29;;;;;;;16.98;11.65;;;;;;;;;;6162482;23;20024;-94
2022/03/01 10:43:02;;;;;;;22.40;12.65;;;;;;;;;;6078863;23;20017;-91
2022/03/01 10:45:39;;;;;;;18.58;12.13;;;;;;;;;;6079365;23;20017;-89
2022/03/01 10:48:06;;;;;;;19.00;11.45;;;;;;;;;;6078931;23;20014;-90
2022/03/01 10:50:32;;;;;;;18.20;12.05;;;;;;;;;;6077357;23;20054;-90
2022/03/01 10:52:59;;;;;;;20.48;12.45;;;;;;;;;;6078019;23;20025;-89
2022/03/01 10:55:27;;;;;;;21.63;12.25;;;;;;;;;;6078989;23;20014;-90
2022/03/01 10:57:56;;;;;;;19.45;12.27;;;;;;;;;;6078258;23;20032;-89
2022/03/01 11:00:22;;;;;;;17.30;12.15;;;;;;;;;;6078043;23;20507;-89
2022/03/01 11:02:48;;;;;;;17.20;11.18;;;;;;;;;;6077963;23;20563;-90
2022/03/01 11:05:14;;;;;;;17.45;11.45;;;;;;;;;;6101981;23;20017;-89
2022/03/01 11:07:42;;;;;;;18.80;12.23;;;;;;;;;;6078299;23;20014;-90
2022/03/01 11:10:09;;;;;;;16.83;11.27;;;;;;;;;;6079840;23;20018;-90
2022/03/01 11:12:35;;;;;;;16.63;11.07;;;;;;;;;;6078353;23;20014;-92
2022/03/01 11:15:01;;;;;;;20.70;12.48;;;;;;;;;;6078867;23;20017;-90
2022/03/01 11:17:50;;;;;;;20.30;12.32;;;;;;;;;;6078156;23;20105;-89
2022/03/01 11:20:22;;;;;;;21.02;12.52;;;;;;;;;;6155067;23;20021;-91
2022/03/01 11:22:54;;;;;;;17.52;12.50;;;;;;;;;;6162531;23;20023;-96
2022/03/01 11:25:24;;;;;;;19.27;12.77;;;;;;;;;;6163610;23;20073;-94
2022/03/01 11:27:52;;;;;;;21.98;13.45;;;;;;;;;;6164033;23;20021;-95
2022/03/01 11:30:25;;;;;;;21.27;12.15;;;;;;;;;;6188213;23;20021;-96
2022/03/01 11:32:54;;;;;;;20.77;12.85;;;;;;;;;;6187903;23;20052;-92
2022/03/01 11:35:22;;;;;;;18.83;12.70;;;;;;;;;;6162103;23;20021;-90
2022/03/01 11:37:58;;;;;;;19.17;12.30;;;;;;;;;;6187166;23;20024;-92
2022/03/01 11:40:25;;;;;;;18.88;12.32;;;;;;;;;;6162046;23;20336;-92
2022/03/01 11:42:51;;;;;;;16.65;12.45;;;;;;;;;;6162164;23;20017;-91
2022/03/01 11:45:17;;;;;;;18.90;12.43;;;;;;;;;;6161977;23;20071;-94
2022/03/01 11:47:43;;;;;;;20.42;13.00;;;;;;;;;;6161319;23;20027;-91
2022/03/01 11:50:13;;;;;;;19.27;13.25;;;;;;;;;;6186102;23;20021;-93
2022/03/01 11:52:55;;;;;;;19.17;13.52;;;;;;;;;;6162175;23;20060;-92
2022/03/01 11:55:22;;;;;;;18.83;13.07;;;;;;;;;;6161677;23;20028;-95
2022/03/01 11:57:50;;;;;;;21.75;12.65;;;;;;;;;;6186646;23;20059;-93
2022/03/01 12:00:18;;;;;;;23.23;13.30;;;;;;;;;;6162204;23;20016;-93
2022/03/01 12:02:45;;;;;;;19.42;12.25;;;;;;;;;;6186768;23;20013;-94
2022/03/01 12:05:19;;;;;;;20.40;13.95;;;;;;;;;;6161694;23;20017;-94
2022/03/01 12:07:45;;;;;;;20.38;13.55;;;;;;;;;;6161895;23;20017;-92
2022/03/01 12:10:19;;;;;;;18.33;12.38;;;;;;;;;;6186764;23;20017;-93
2022/03/01 12:12:46;;;;;;;27.58;13.75;;;;;;;;;;6187765;23;20024;-93
2022/03/01 12:15:13;;;;;;;20.15;13.27;;;;;;;;;;6161477;23;20021;-91
2022/03/01 12:17:44;;;;;;;25.75;13.73;;;;;;;;;;6186416;23;20013;-93
2022/03/01 12:20:12;;;;;;;23.00;12.70;;;;;;;;;;6162592;23;20517;-93
2022/03/01 12:22:48;;;;;;;16.73;12.00;;;;;;;;;;6161537;23;20080;-91
2022/03/01 12:25:16;;;;;;;18.85;12.45;;;;;;;;;;6161173;23;20466;-92
2022/03/01 12:27:43;;;;;;;21.63;13.23;;;;;;;;;;6187348;23;20018;-92
2022/03/01 12:30:10;;;;;;;20.17;13.65;;;;;;;;;;6163852;23;20072;-91
2022/03/01 12:32:36;;;;;;;19.98;14.25;;;;;;;;;;6163932;23;20013;-93
2022/03/01 12:35:02;;;;;;;20.38;14.13;;;;;;;;;;6163808;23;20021;-91
2022/03/01 12:37:29;;;;;;;21.83;14.25;;;;;;;;;;6163536;23;20021;-90
2022/03/01 12:39:55;;;;;;;21.08;15.02;;;;;;;;;;6163511;23;20028;-94
2022/03/01 12:42:27;;;;;;;20.67;14.52;;;;;;;;;;6163530;23;20064;-92
2022/03/01 12:44:53;;;;;;;24.77;14.05;;;;;;;;;;6163485;23;20119;-93
2022/03/01 12:47:19;;;;;;;22.23;15.43;;;;;;;;;;6163261;23;20019;-95
2022/03/01 12:49:45;;;;;;;23.90;15.20;;;;;;;;;;6164642;23;20428;-94
2022/03/01 12:52:17;;;;;;;24.05;15.48;;;;;;;;;;6163588;23;20107;-92
2022/03/01 12:54:46;;;;;;;26.17;15.57;;;;;;;;;;6164918;23;20013;-93
2022/03/01 12:57:13;;;;;;;26.55;14.82;;;;;;;;;;6164617;23;20013;-92
2022/03/01 12:59:40;;;;;;;21.85;14.93;;;;;;;;;;6164192;23;20049;-91
2022/03/01 13:02:07;;;;;;;21.85;14.48;;;;;;;;;;6163756;23;20071;-93
2022/03/01 13:04:35;;;;;;;30.58;15.82;;;;;;;;;;6163645;23;20025;-92
2022/03/01 13:07:02;;;;;;;25.65;14.70;;;;;;;;;;6164368;23;20021;-94
2022/03/01 13:09:28;;;;;;;23.63;14.02;;;;;;;;;;6188912;23;20083;-93
2022/03/01 13:11:54;;;;;;;24.27;14.50;;;;;;;;;;6188553;23;20071;-94
2022/03/01 13:14:21;;;;;;;20.15;13.90;;;;;;;;;;6185275;23;20027;-91
2022/03/01 13:16:52;;;;;;;23.00;14.25;;;;;;;;;;6195593;23;20017;-93
2022/03/01 13:19:20;;;;;;;26.63;15.85;;;;;;;;;;6194898;23;20458;-93
2022/03/01 13:21:47;;;;;;;21.80;15.27;;;;;;;;;;6194297;23;20346;-92
2022/03/01 13:24:13;;;;;;;27.70;16.00;;;;;;;;;;6195357;23;20032;-93
2022/03/01 13:26:39;;;;;;;22.27;15.75;;;;;;;;;;6194854;23;20051;-90
2022/03/01 13:29:13;;;;;;;21.58;13.48;;;;;;;;;;6193523;23;20012;-91
2022/03/01 13:31:40;;;;;;;33.53;14.75;;;;;;;;;;6194497;23;20016;-89
2022/03/01 13:34:07;;;;;;;25.30;14.65;;;;;;;;;;6193485;23;20037;-94
2022/03/01 13:36:38;;;;;;;20.27;13.98;;;;;;;;;;6193832;23;20012;-94
2022/03/01 13:39:09;;;;;;;23.90;15.10;;;;;;;;;;6194580;23;20036;-94
2022/03/01 13:41:37;;;;;;;24.52;14.55;;;;;;;;;;6194254;23;20024;-94
2022/03/01 13:44:29;;;;;;;20.63;14.95;;;;;;;;;;6194629;23;20139;-93
2022/03/01 13:47:01;;;;;;;23.08;15.25;;;;;;;;;;6103392;23;20016;-93
2022/03/01 13:49:29;;;;;;;22.98;13.63;;;;;;;;;;6079639;23;20456;-94
2022/03/01 13:52:13;;;;;;;21.80;14.35;;;;;;;;;;6078829;23;20053;-93
2022/03/01 13:54:40;;;;;;;23.27;15.23;;;;;;;;;;6080217;23;20025;-94
2022/03/01 13:57:09;;;;;;;21.58;14.90;;;;;;;;;;6079163;23;20069;-94
2022/03/01 13:59:39;;;;;;;21.45;14.82;;;;;;;;;;6078822;23;20018;-94
2022/03/01 14:02:05;;;;;;;24.23;15.50;;;;;;;;;;6078857;23;20061;-94
2022/03/01 14:04:32;;;;;;;23.58;14.68;;;;;;;;;;6078757;23;20014;-93
2022/03/01 14:07:03;;;;;;;21.13;14.65;;;;;;;;;;6073690;23;20034;-93
2022/03/01 14:09:29;;;;;;;20.80;15.23;;;;;;;;;;6074096;23;20112;-93
2022/03/01 14:11:58;;;;;;;22.48;15.50;;;;;;;;;;6074002;23;20066;-94
2022/03/01 14:14:25;;;;;;;22.20;15.77;;;;;;;;;;6073171;23;20022;-93
2022/03/01 14:16:51;;;;;;;23.42;15.15;;;;;;;;;;6073846;23;20026;-94
2022/03/01 14:19:18;;;;;;;27.75;14.90;;;;;;;;;;6074146;23;20018;-94
2022/03/01 14:21:45;;;;;;;31.48;16.42;;;;;;;;;;6049555;23;20019;-94
2022/03/01 14:24:14;;;;;;;22.48;15.18;;;;;;;;;;6153686;23;20079;-93
2022/03/01 14:26:40;;;;;;;26.40;16.35;;;;;;;;;;6162478;23;20017;-95
2022/03/01 14:29:08;;;;;;;23.35;15.35;;;;;;;;;;6188282;23;20017;-93
2022/03/01 14:31:35;;;;;;;21.30;15.05;;;;;;;;;;6187609;23;20085;-94
2022/03/01 14:34:02;;;;;;;25.02;14.48;;;;;;;;;;6162857;23;20084;-89
2022/03/01 14:36:28;;;;;;;24.38;14.75;;;;;;;;;;6161693;23;20021;-93
2022/03/01 14:38:54;;;;;;;23.90;15.45;;;;;;;;;;6187377;23;20013;-95
2022/03/01 14:41:22;;;;;;;22.73;15.23;;;;;;;;;;6162416;23;20071;-94
2022/03/01 14:43:50;;;;;;;19.08;13.98;;;;;;;;;;6162766;23;20013;-94
2022/03/01 14:46:17;;;;;;;22.30;15.52;;;;;;;;;;6187751;23;20091;-95
2022/03/01 14:48:43;;;;;;;22.85;15.82;;;;;;;;;;6162168;23;20017;-94
2022/03/01 14:51:09;;;;;;;21.17;16.13;;;;;;;;;;6162376;23;20056;-94
2022/03/01 14:53:35;;;;;;;23.85;15.15;;;;;;;;;;6163068;23;20024;-93
2022/03/01 14:56:02;;;;;;;21.48;15.25;;;;;;;;;;6163952;23;20020;-91
2022/03/01 14:58:28;;;;;;;24.30;15.60;;;;;;;;;;6162244;23;20451;-92
2022/03/01 15:00:54;;;;;;;24.90;15.07;;;;;;;;;;6162747;23;20017;-92
2022/03/01 15:03:20;;;;;;;24.67;17.75;;;;;;;;;;6164808;23;20550;-91
2022/03/01 15:05:47;;;;;;;26.25;16.90;;;;;;;;;;6163325;23;20021;-91
2022/03/01 15:08:13;;;;;;;24.83;16.33;;;;;;;;;;6162947;23;20462;-93
2022/03/01 15:10:39;;;;;;;22.92;15.40;;;;;;;;;;6163136;23;20017;-94
2022/03/01 15:13:06;;;;;;;20.70;15.35;;;;;;;;;;6162994;23;20013;-93
2022/03/01 15:15:33;;;;;;;21.73;15.27;;;;;;;;;;6109303;23;20029;-94
2022/03/01 15:17:59;;;;;;;23.20;15.00;;;;;;;;;;6108251;23;20018;-96
2022/03/01 15:20:25;;;;;;;22.73;15.25;;;;;;;;;;6133125;23;20072;-93
2022/03/01 15:22:54;;;;;;;23.27;15.70;;;;;;;;;;6109439;23;20022;-95
2022/03/01 15:25:20;;;;;;;23.42;14.65;;;;;;;;;;6107751;23;20021;-95
2022/03/01 15:27:46;;;;;;;24.63;16.17;;;;;;;;;;6134045;23;20080;-95
2022/03/01 15:30:13;;;;;;;23.75;15.98;;;;;;;;;;6108877;23;20018;-94
2022/03/01 15:32:39;;;;;;;24.33;16.08;;;;;;;;;;6133372;23;20041;-92
2022/03/01 15:35:06;;;;;;;25.17;15.15;;;;;;;;;;6134147;23;20021;-95
2022/03/01 15:37:32;;;;;;;27.58;16.88;;;;;;;;;;6109336;23;20025;-94
2022/03/01 15:39:58;;;;;;;22.05;15.25;;;;;;;;;;6108993;23;20021;-94
2022/03/01 15:42:25;;;;;;;23.33;16.00;;;;;;;;;;6107969;23;20029;-92
2022/03/01 15:44:51;;;;;;;23.75;16.50;;;;;;;;;;6132931;23;20021;-94
2022/03/01 15:47:18;;;;;;;23.63;15.73;;;;;;;;;;6132302;23;20052;-94
2022/03/01 15:49:44;;;;;;;22.25;15.77;;;;;;;;;;6132260;23;20030;-93
2022/03/01 15:52:10;;;;;;;24.30;16.73;;;;;;;;;;6108096;23;20017;-91
2022/03/01 15:54:38;;;;;;;20.98;14.80;;;;;;;;;;6107726;23;20084;-93
2022/03/01 15:57:06;;;;;;;23.08;16.30;;;;;;;;;;6131897;23;20020;-94
2022/03/01 15:59:32;;;;;;;23.92;15.98;;;;;;;;;;6107136;23;20022;-92
2022/03/01 16:01:58;;;;;;;28.38;17.15;;;;;;;;;;6109149;23;20018;-92
2022/03/01 16:04:24;;;;;;;22.77;15.60;;;;;;;;;;6108868;23;20338;-91
2022/03/01 16:06:50;;;;;;;25.17;16.55;;;;;;;;;;6133476;23;20017;-93
2022/03/01 16:09:16;;;;;;;26.52;16.35;;;;;;;;;;6109653;23;20010;-94
2022/03/01 16:11:42;;;;;;;29.40;16.63;;;;;;;;;;6110080;23;20418;-95
2022/03/01 16:14:09;;;;;;;26.67;16.17;;;;;;;;;;6122096;23;20079;-95
2022/03/01 16:16:37;;;;;;;26.10;16.58;;;;;;;;;;6139323;23;20021;-94
2022/03/01 16:19:03;;;;;;;21.30;15.18;;;;;;;;;;6138208;23;20082;-94
2022/03/01 16:21:29;;;;;;;29.13;16.02;;;;;;;;;;6138950;23;20021;-92
2022/03/01 16:23:56;;;;;;;24.27;15.75;;;;;;;;;;6139317;23;20035;-94
2022/03/01 16:26:22;;;;;;;26.75;15.98;;;;;;;;;;6163354;23;20017;-92
2022/03/01 16:28:49;;;;;;;30.30;15.75;;;;;;;;;;6140297;23;20096;-95
2022/03/01 16:31:15;;;;;;;23.10;15.48;;;;;;;;;;6163146;23;20104;-90
2022/03/01 16:33:42;;;;;;;22.48;16.08;;;;;;;;;;6138808;23;20024;-91
2022/03/01 16:36:08;;;;;;;25.88;16.92;;;;;;;;;;6163214;23;20455;-93
2022/03/01 16:38:34;;;;;;;23.98;15.77;;;;;;;;;;6138073;23;20353;-91
2022/03/01 16:41:01;;;;;;;27.20;17.27;;;;;;;;;;6138261;23;20406;-92
2022/03/01 16:43:27;;;;;;;28.40;18.00;;;;;;;;;;6138648;23;20021;-90
2022/03/01 16:45:53;;;;;;;33.78;18.35;;;;;;;;;;6138368;23;20043;-94
2022/03/01 16:48:20;;;;;;;30.27;17.90;;;;;;;;;;6162897;23;20014;-92
2022/03/01 16:50:46;;;;;;;25.35;18.52;;;;;;;;;;6165808;23;20021;-92
2022/03/01 16:53:12;;;;;;;31.08;19.52;;;;;;;;;;6165610;23;20013;-93
2022/03/01 16:55:38;;;;;;;30.25;19.25;;;;;;;;;;6138488;23;20446;-92
2022/03/01 16:58:04;;;;;;;28.15;18.55;;;;;;;;;;6139484;23;20012;-91
2022/03/01 17:00:32;;;;;;;27.95;18.33;;;;;;;;;;6137709;23;20044;-93
2022/03/01 17:03:01;;;;;;;46.70;20.10;;;;;;;;;;6138379;23;20355;-94
2022/03/01 17:05:28;;;;;;;28.10;18.13;;;;;;;;;;6138248;23;20043;-93
2022/03/01 17:07:54;;;;;;;28.17;18.15;;;;;;;;;;6138370;23;20455;-92
2022/03/01 17:10:20;;;;;;;28.80;19.13;;;;;;;;;;6138050;23;20340;-92
2022/03/01 17:12:46;;;;;;;26.75;18.75;;;;;;;;;;6137750;23;20014;-91
2022/03/01 17:15:12;;;;;;;26.95;18.13;;;;;;;;;;6138476;23;20057;-94
2022/03/01 17:17:39;;;;;;;24.90;17.88;;;;;;;;;;6137645;23;20028;-96
2022/03/01 17:20:06;;;;;;;28.35;18.20;;;;;;;;;;6138427;23;20051;-92
2022/03/01 17:22:32;;;;;;;39.28;18.92;;;;;;;;;;6138322;23;20071;-92
2022/03/01 17:24:58;;;;;;;27.27;17.35;;;;;;;;;;6137790;23;20105;-90
2022/03/01 17:27:24;;;;;;;31.50;18.30;;;;;;;;;;6162720;23;20021;-93
2022/03/01 17:29:50;;;;;;;28.23;18.05;;;;;;;;;;6138974;23;20028;-93
2022/03/01 17:32:17;;;;;;;27.50;18.48;;;;;;;;;;6162960;23;20024;-93
2022/03/01 17:34:48;;;;;;;28.17;18.58;;;;;;;;;;6163136;23;20017;-92
2022/03/01 17:37:15;;;;;;;26.50;17.83;;;;;;;;;;6138654;23;20029;-90
2022/03/01 17:39:41;;;;;;;24.83;16.95;;;;;;;;;;6161985;23;20064;-94
2022/03/01 17:42:08;;;;;;;27.25;18.55;;;;;;;;;;6206987;23;20036;-92
2022/03/01 17:44:34;;;;;;;28.95;18.25;;;;;;;;;;6192505;23;20026;-94
2022/03/01 17:47:01;;;;;;;32.50;18.90;;;;;;;;;;6192299;23;20020;-93
2022/03/01 17:49:27;;;;;;;31.48;19.10;;;;;;;;;;6192376;23;20051;-91
2022/03/01 17:51:53;;;;;;;25.67;17.92;;;;;;;;;;6192296;23;20087;-94
2022/03/01 17:54:19;;;;;;;31.65;19.23;;;;;;;;;;6192173;23;20034;-90
2022/03/01 17:56:46;;;;;;;29.38;19.52;;;;;;;;;;6193401;23;20020;-90
2022/03/01 17:59:12;;;;;;;28.45;19.35;;;;;;;;;;6191610;23;20013;-92
2022/03/01 18:01:42;;;;;;;30.17;18.25;;;;;;;;;;6187209;23;20020;-91
